createdAt,value
2022-09-25T00:01:14.794Z,6.00
2022-09-25T00:03:42.959Z,5.30
2022-09-25T00:06:14.353Z,6.70
2022-09-25T00:08:42.094Z,5.85
2022-09-25T00:11:12.046Z,7.20
2022-09-25T00:13:42.683Z,8.33
2022-09-25T00:16:12.582Z,11.00
2022-09-25T00:18:58.059Z,9.88
2022-09-25T00:21:30.440Z,6.30
2022-09-25T00:23:58.544Z,5.47
2022-09-25T00:26:28.695Z,5.10
2022-09-25T00:29:01.026Z,5.90
2022-09-25T00:31:29.376Z,5.78
2022-09-25T00:34:00.046Z,6.00
2022-09-25T00:36:28.369Z,6.67
2022-09-25T00:38:58.270Z,7.10
2022-09-25T00:41:29.278Z,6.20
2022-09-25T00:44:02.289Z,5.47
2022-09-25T00:46:32.965Z,9.07
2022-09-25T00:49:03.264Z,8.90
2022-09-25T00:51:38.427Z,12.25
2022-09-25T00:54:07.858Z,10.35
2022-09-25T00:56:40.408Z,8.50
2022-09-25T00:59:12.637Z,10.30
2022-09-25T01:01:42.541Z,8.60
2022-09-25T01:04:13.391Z,7.57
2022-09-25T01:06:41.944Z,9.23
2022-09-25T01:09:09.818Z,9.33
2022-09-25T01:11:39.588Z,6.57
2022-09-25T01:14:11.071Z,5.80
2022-09-25T01:16:45.532Z,5.97
2022-09-25T01:19:27.243Z,7.40
2022-09-25T01:22:01.235Z,6.50
2022-09-25T01:24:43.937Z,6.88
2022-09-25T01:27:31.588Z,7.70
2022-09-25T01:30:06.851Z,6.80
2022-09-25T01:32:46.152Z,5.60
2022-09-25T01:35:19.323Z,9.85
2022-09-25T01:37:55.048Z,7.50
2022-09-25T01:40:29.351Z,5.57
2022-09-25T01:43:06.011Z,6.75
2022-09-25T01:45:40.787Z,6.20
2022-09-25T01:48:10.383Z,5.90
2022-09-25T01:50:44.320Z,7.97
2022-09-25T01:53:17.381Z,6.70
2022-09-25T01:55:49.665Z,7.03
2022-09-25T01:58:23.225Z,5.90
2022-09-25T02:00:59.284Z,7.20
2022-09-25T02:03:32.313Z,6.20
2022-09-25T02:06:02.507Z,5.82
2022-09-25T02:08:40.170Z,5.30
2022-09-25T02:11:09.781Z,6.03
2022-09-25T02:13:43.237Z,6.22
2022-09-25T02:16:17.435Z,5.10
2022-09-25T02:19:03.630Z,5.47
2022-09-25T02:21:43.603Z,6.70
2022-09-25T02:24:20.331Z,5.47
2022-09-25T02:26:49.577Z,7.40
2022-09-25T02:29:17.521Z,6.90
2022-09-25T02:31:53.656Z,6.50
2022-09-25T02:34:22.222Z,5.43
2022-09-25T02:36:52.203Z,6.45
2022-09-25T02:39:23.763Z,6.97
2022-09-25T02:42:07.027Z,5.75
2022-09-25T02:44:43.506Z,6.05
2022-09-25T02:47:24.220Z,6.37
2022-09-25T02:50:00.916Z,7.10
2022-09-25T02:52:34.740Z,5.70
2022-09-25T02:55:07.935Z,5.22
2022-09-25T02:57:43.428Z,5.03
2022-09-25T03:00:13.296Z,6.50
2022-09-25T03:02:49.602Z,9.75
2022-09-25T03:05:19.344Z,5.70
2022-09-25T03:08:06.816Z,5.33
2022-09-25T03:10:37.814Z,6.53
2022-09-25T03:13:16.328Z,5.57
2022-09-25T03:15:47.624Z,6.53
2022-09-25T03:18:17.109Z,8.05
2022-09-25T03:20:45.148Z,10.23
2022-09-25T03:23:12.950Z,9.18
2022-09-25T03:25:42.793Z,6.28
2022-09-25T03:28:13.814Z,6.53
2022-09-25T03:30:42.020Z,6.70
2022-09-25T03:33:10.647Z,6.25
2022-09-25T03:35:40.074Z,6.00
2022-09-25T03:38:08.693Z,6.85
2022-09-25T03:40:38.498Z,6.90
2022-09-25T03:45:33.071Z,6.72
2022-09-25T03:48:03.157Z,7.45
2022-09-25T03:50:33.393Z,7.75
2022-09-25T03:53:02.483Z,7.82
2022-09-25T03:55:30.193Z,6.05
2022-09-25T03:57:57.925Z,6.50
2022-09-25T04:00:27.791Z,7.28
2022-09-25T04:02:59.300Z,8.80
2022-09-25T04:05:27.071Z,7.63
2022-09-25T04:07:54.767Z,8.73
2022-09-25T04:10:23.858Z,9.60
2022-09-25T04:12:54.354Z,14.83
2022-09-25T04:15:23.124Z,15.80
2022-09-25T04:17:52.086Z,13.47
2022-09-25T04:20:20.450Z,15.07
2022-09-25T04:22:48.086Z,13.57
2022-09-25T04:25:18.508Z,9.35
2022-09-25T04:27:51.179Z,8.52
2022-09-25T04:30:19.093Z,8.40
2022-09-25T04:33:04.282Z,8.52
2022-09-25T04:35:32.045Z,9.23
2022-09-25T04:38:00.083Z,8.55
2022-09-25T04:40:28.018Z,8.57
2022-09-25T04:43:00.895Z,12.18
2022-09-25T04:45:30.955Z,9.63
2022-09-25T04:48:01.049Z,9.03
2022-09-25T04:50:29.799Z,9.37
2022-09-25T04:53:03.799Z,10.07
2022-09-25T04:55:31.577Z,8.45
2022-09-25T04:58:02.166Z,8.68
2022-09-25T05:00:31.822Z,8.07
2022-09-25T05:03:00.104Z,7.32
2022-09-25T05:05:30.847Z,8.23
2022-09-25T05:08:00.213Z,8.43
2022-09-25T05:10:29.874Z,13.93
2022-09-25T05:12:58.792Z,9.93
2022-09-25T05:15:29.236Z,13.17
2022-09-25T05:18:04.242Z,11.25
2022-09-25T05:20:32.585Z,11.82
2022-09-25T05:23:03.460Z,9.07
2022-09-25T05:25:33.914Z,8.07
2022-09-25T05:28:03.937Z,7.60
2022-09-25T05:30:35.034Z,10.18
2022-09-25T05:33:02.844Z,11.45
2022-09-25T05:35:32.450Z,9.70
2022-09-25T05:38:00.758Z,12.53
2022-09-25T05:40:28.900Z,8.77
2022-09-25T05:42:57.017Z,10.15
2022-09-25T05:45:24.984Z,11.57
2022-09-25T05:48:03.006Z,10.25
2022-09-25T05:50:32.277Z,9.23
2022-09-25T05:53:00.775Z,9.25
2022-09-25T05:55:31.893Z,8.33
2022-09-25T05:58:03.498Z,10.40
2022-09-25T06:00:33.168Z,10.25
2022-09-25T06:03:02.703Z,10.83
2022-09-25T06:05:31.114Z,9.10
2022-09-25T06:07:58.825Z,8.60
2022-09-25T06:10:29.422Z,10.43
2022-09-25T06:12:59.616Z,10.98
2022-09-25T06:15:30.569Z,10.03
2022-09-25T06:17:58.777Z,9.20
2022-09-25T06:20:28.030Z,11.10
2022-09-25T06:22:56.543Z,8.68
2022-09-25T06:25:29.001Z,9.02
2022-09-25T06:27:58.017Z,8.00
2022-09-25T06:30:27.519Z,6.80
2022-09-25T06:32:58.201Z,9.10
2022-09-25T06:35:25.926Z,10.23
2022-09-25T06:37:58.386Z,7.63
2022-09-25T06:40:27.940Z,7.05
2022-09-25T06:42:59.449Z,8.35
2022-09-25T06:45:28.406Z,9.98
2022-09-25T06:48:01.600Z,10.07
2022-09-25T06:50:33.042Z,9.60
2022-09-25T06:53:02.212Z,8.30
2022-09-25T06:55:32.263Z,7.10
2022-09-25T06:58:02.712Z,7.00
2022-09-25T07:00:30.772Z,10.93
2022-09-25T07:03:15.756Z,10.77
2022-09-25T07:05:44.631Z,10.10
2022-09-25T07:08:16.228Z,8.57
2022-09-25T07:10:49.301Z,8.85
2022-09-25T07:13:17.890Z,9.38
2022-09-25T07:15:53.014Z,8.13
2022-09-25T07:18:28.539Z,9.68
2022-09-25T07:21:02.758Z,8.30
2022-09-25T07:23:33.446Z,11.00
2022-09-25T07:26:06.707Z,9.90
2022-09-25T07:28:34.987Z,7.47
2022-09-25T07:31:11.919Z,11.05
2022-09-25T07:33:39.665Z,9.02
2022-09-25T07:36:08.329Z,7.88
2022-09-25T07:38:37.633Z,8.90
2022-09-25T07:41:06.325Z,10.90
2022-09-25T07:43:34.655Z,9.27
2022-09-25T07:46:02.637Z,12.85
2022-09-25T07:48:31.602Z,12.32
2022-09-25T07:51:01.208Z,10.10
2022-09-25T07:53:28.926Z,8.37
2022-09-25T07:56:06.128Z,11.00
2022-09-25T07:58:35.672Z,8.50
2022-09-25T08:01:05.957Z,8.07
2022-09-25T08:03:34.671Z,10.93
2022-09-25T08:06:04.116Z,9.00
2022-09-25T08:08:33.990Z,7.53
2022-09-25T08:11:07.951Z,8.90
2022-09-25T08:13:39.147Z,10.50
2022-09-25T08:16:12.017Z,10.40
2022-09-25T08:18:41.405Z,9.75
2022-09-25T08:21:10.192Z,8.30
2022-09-25T08:23:38.089Z,8.18
2022-09-25T08:26:07.724Z,10.80
2022-09-25T08:28:35.916Z,10.17
2022-09-25T08:31:04.762Z,10.03
2022-09-25T08:33:34.429Z,9.32
2022-09-25T08:36:04.360Z,6.90
2022-09-25T08:38:33.146Z,7.40
2022-09-25T08:41:05.911Z,8.13
2022-09-25T08:43:38.655Z,7.57
2022-09-25T08:46:35.731Z,8.80
2022-09-25T08:49:05.921Z,7.70
2022-09-25T08:51:37.092Z,7.13
2022-09-25T08:54:06.343Z,6.80
2022-09-25T08:56:36.387Z,7.68
2022-09-25T08:59:11.389Z,7.00
2022-09-25T09:01:46.643Z,8.95
2022-09-25T09:04:20.347Z,8.70
2022-09-25T09:07:24.625Z,8.85
2022-09-25T09:09:45.331Z,8.32
2022-09-25T09:12:15.861Z,8.75
2022-09-25T09:14:48.362Z,8.90
2022-09-25T09:17:19.734Z,7.00
2022-09-25T09:19:50.084Z,6.85
2022-09-25T09:22:24.021Z,7.05
2022-09-25T09:24:56.356Z,8.40
2022-09-25T09:27:36.183Z,8.02
2022-09-25T09:30:14.197Z,8.55
2022-09-25T09:32:56.296Z,7.97
2022-09-25T09:35:33.833Z,8.10
2022-09-25T09:38:11.903Z,8.82
2022-09-25T09:40:55.605Z,8.18
2022-09-25T09:43:38.877Z,5.40
2022-09-25T09:46:18.019Z,7.55
2022-09-25T09:48:56.587Z,8.45
2022-09-25T09:51:29.694Z,8.32
2022-09-25T09:54:04.852Z,7.05
2022-09-25T09:56:35.676Z,8.60
2022-09-25T09:59:08.019Z,8.10
2022-09-25T10:01:42.024Z,7.90
2022-09-25T10:04:12.854Z,7.47
2022-09-25T10:06:48.346Z,7.45
2022-09-25T10:09:17.694Z,9.07
2022-09-25T10:11:48.177Z,9.20
2022-09-25T10:14:20.944Z,10.23
2022-09-25T10:16:51.763Z,9.65
2022-09-25T10:19:22.373Z,11.18
2022-09-25T10:21:54.690Z,12.10
2022-09-25T10:24:53.436Z,13.57
2022-09-25T10:27:27.457Z,14.13
2022-09-25T10:30:15.523Z,13.15
2022-09-25T10:32:52.366Z,12.57
2022-09-25T10:35:28.066Z,12.77
2022-09-25T10:37:57.453Z,13.93
2022-09-25T10:40:31.844Z,12.23
2022-09-25T10:43:20.648Z,13.40
2022-09-25T10:45:49.666Z,14.20
2022-09-25T10:48:45.327Z,13.13
2022-09-25T10:51:18.317Z,14.18
2022-09-25T10:53:46.709Z,14.05
2022-09-25T10:56:20.418Z,13.05
2022-09-25T10:58:53.944Z,13.77
2022-09-25T11:01:23.246Z,14.68
2022-09-25T11:03:56.553Z,12.32
2022-09-25T11:06:27.129Z,13.73
2022-09-25T11:09:10.226Z,15.18
2022-09-25T11:11:41.080Z,13.63
2022-09-25T11:14:21.001Z,14.37
2022-09-25T11:16:52.584Z,12.18
2022-09-25T11:19:27.026Z,15.20
2022-09-25T11:22:07.734Z,14.50
2022-09-25T11:24:54.878Z,12.80
2022-09-25T11:27:35.388Z,13.70
2022-09-25T11:30:06.944Z,11.07
2022-09-25T11:32:50.196Z,15.20
2022-09-25T11:35:33.077Z,14.25
2022-09-25T11:38:09.898Z,15.88
2022-09-25T11:41:07.780Z,14.45
2022-09-25T11:43:46.905Z,15.67
2022-09-25T11:46:23.146Z,14.67
2022-09-25T11:49:00.803Z,14.20
2022-09-25T11:51:46.724Z,14.65
2022-09-25T11:54:33.930Z,13.93
2022-09-25T11:57:09.488Z,15.20
2022-09-25T11:59:48.987Z,14.17
2022-09-25T12:02:25.760Z,16.20
2022-09-25T12:05:16.267Z,12.70
2022-09-25T12:08:19.081Z,15.20
2022-09-25T12:10:58.196Z,12.50
2022-09-25T12:13:34.436Z,14.32
2022-09-25T12:16:13.165Z,15.05
2022-09-25T12:19:02.334Z,15.40
2022-09-25T12:21:36.115Z,14.10
2022-09-25T12:24:12.485Z,13.20
2022-09-25T12:26:52.558Z,13.60
2022-09-25T12:29:34.013Z,12.27
2022-09-25T12:32:08.816Z,15.32
2022-09-25T12:34:56.613Z,12.70
2022-09-25T12:37:35.600Z,11.88
2022-09-25T12:40:07.101Z,10.50
2022-09-25T12:42:44.101Z,10.43
2022-09-25T12:45:19.154Z,10.10
2022-09-25T12:48:00.443Z,9.23
2022-09-25T12:50:32.923Z,8.65
2022-09-25T12:53:06.523Z,9.40
2022-09-25T12:55:40.079Z,7.35
2022-09-25T12:58:21.203Z,8.33
2022-09-25T13:00:54.868Z,7.43
2022-09-25T13:03:29.059Z,6.90
2022-09-25T13:06:08.354Z,7.38
2022-09-25T13:08:42.691Z,7.25
2022-09-25T13:11:17.423Z,8.15
2022-09-25T13:13:50.563Z,8.40
2022-09-25T13:16:22.118Z,8.90
2022-09-25T13:19:11.425Z,8.45
2022-09-25T13:21:41.667Z,7.50
2022-09-25T13:24:14.478Z,7.68
2022-09-25T13:26:47.115Z,7.70
2022-09-25T13:29:23.990Z,7.90
2022-09-25T13:31:53.482Z,8.02
2022-09-25T13:34:24.430Z,7.47
2022-09-25T13:36:55.115Z,7.72
2022-09-25T13:39:46.303Z,8.20
2022-09-25T13:42:22.393Z,7.47
2022-09-25T13:45:07.801Z,8.10
2022-09-25T13:48:00.606Z,8.57
2022-09-25T13:50:34.026Z,8.50
2022-09-25T13:53:24.065Z,8.95
2022-09-25T13:56:18.562Z,8.90
2022-09-25T13:59:21.023Z,8.95
2022-09-25T14:01:53.935Z,7.00
2022-09-25T14:04:28.931Z,6.90
2022-09-25T14:07:06.625Z,6.30
2022-09-25T14:09:35.672Z,5.18
2022-09-25T14:12:10.031Z,5.85
2022-09-25T14:14:45.374Z,5.78
2022-09-25T14:17:17.426Z,5.45
2022-09-25T14:19:48.969Z,4.78
2022-09-25T14:22:24.723Z,5.83
2022-09-25T14:24:53.215Z,5.85
2022-09-25T14:27:26.328Z,4.93
2022-09-25T14:30:03.570Z,5.53
2022-09-25T14:33:00.959Z,5.03
2022-09-25T14:35:37.037Z,4.50
2022-09-25T14:38:45.116Z,4.88
2022-09-25T14:41:43.963Z,4.88
2022-09-25T14:44:30.752Z,5.10
2022-09-25T14:46:58.962Z,4.77
2022-09-25T14:49:30.951Z,4.60
2022-09-25T14:52:03.020Z,4.90
2022-09-25T14:54:36.431Z,5.10
2022-09-25T14:57:05.998Z,4.90
2022-09-25T14:59:40.217Z,4.40
2022-09-25T15:02:18.503Z,4.50
2022-09-25T15:04:47.642Z,4.22
2022-09-25T15:07:17.458Z,4.38
2022-09-25T15:09:48.428Z,4.10
2022-09-25T15:12:20.316Z,4.00
2022-09-25T15:15:02.293Z,3.55
2022-09-25T15:17:31.519Z,3.55
2022-09-25T15:20:03.665Z,4.00
2022-09-25T15:22:34.329Z,4.13
2022-09-25T15:25:05.436Z,4.25
2022-09-25T15:27:33.682Z,4.18
2022-09-25T15:30:01.960Z,4.40
2022-09-25T15:32:38.227Z,3.88
2022-09-25T15:35:21.987Z,3.97
2022-09-25T15:37:50.199Z,2.97
2022-09-25T15:40:28.321Z,2.58
2022-09-25T15:42:57.104Z,2.92
2022-09-25T15:45:46.130Z,2.95
2022-09-25T15:48:22.131Z,2.30
2022-09-25T15:50:52.910Z,2.20
2022-09-25T15:53:24.910Z,2.05
2022-09-25T15:56:05.106Z,1.77
2022-09-25T15:58:46.098Z,1.30
2022-09-25T16:01:35.948Z,1.20
2022-09-25T16:04:25.630Z,1.25
2022-09-25T16:06:55.161Z,1.27
2022-09-25T16:09:32.955Z,1.30
2022-09-25T16:12:23.130Z,1.33
2022-09-25T16:14:51.948Z,2.85
2022-09-25T16:17:25.719Z,6.30
2022-09-25T16:20:01.732Z,2.15
2022-09-25T16:22:38.534Z,2.13
2022-09-25T16:25:17.028Z,1.60
2022-09-25T16:27:46.935Z,1.60
2022-09-25T16:30:19.651Z,1.67
2022-09-25T16:32:49.967Z,1.77
2022-09-25T16:35:25.000Z,1.90
2022-09-25T16:37:55.072Z,2.30
2022-09-25T16:40:28.775Z,3.15
2022-09-25T16:42:58.869Z,2.80
2022-09-25T16:45:29.724Z,2.35
2022-09-25T16:47:58.870Z,2.80
2022-09-25T16:50:29.214Z,2.88
2022-09-25T16:52:58.444Z,2.70
2022-09-25T16:55:29.252Z,2.88
2022-09-25T16:58:03.492Z,3.20
2022-09-25T17:00:31.673Z,2.90
2022-09-25T17:02:59.683Z,3.30
2022-09-25T17:05:30.508Z,3.30
2022-09-25T17:08:15.695Z,2.63
2022-09-25T17:10:43.603Z,2.70
2022-09-25T17:13:14.661Z,3.75
2022-09-25T17:15:44.225Z,3.05
2022-09-25T17:18:19.484Z,4.15
2022-09-25T17:20:47.708Z,4.28
2022-09-25T17:23:19.232Z,2.90
2022-09-25T17:25:50.701Z,3.60
2022-09-25T17:28:18.811Z,5.38
2022-09-25T17:30:48.825Z,5.25
2022-09-25T17:33:19.587Z,3.45
2022-09-25T17:35:51.634Z,10.70
2022-09-25T17:38:20.882Z,4.88
2022-09-25T17:40:52.235Z,4.80
2022-09-25T17:43:22.736Z,4.47
2022-09-25T17:45:54.566Z,5.50
2022-09-25T17:48:27.203Z,5.80
2022-09-25T17:50:57.046Z,4.37
2022-09-25T17:53:28.458Z,7.30
2022-09-25T17:55:56.234Z,6.63
2022-09-25T17:58:25.628Z,6.88
2022-09-25T18:00:54.825Z,6.10
2022-09-25T18:03:22.955Z,6.40
2022-09-25T18:05:50.860Z,6.27
2022-09-25T18:08:19.460Z,6.45
2022-09-25T18:10:49.815Z,7.10
2022-09-25T18:13:20.153Z,7.20
2022-09-25T18:15:49.932Z,7.63
2022-09-25T18:18:20.263Z,8.73
2022-09-25T18:21:09.596Z,8.50
2022-09-25T18:23:38.633Z,9.50
2022-09-25T18:26:10.021Z,10.03
2022-09-25T18:28:37.777Z,10.82
2022-09-25T18:31:05.893Z,11.10
2022-09-25T18:33:33.660Z,10.93
2022-09-25T18:36:01.483Z,11.40
2022-09-25T18:38:29.221Z,9.82
2022-09-25T18:40:57.092Z,11.80
2022-09-25T18:43:26.277Z,11.73
2022-09-25T18:45:54.316Z,11.07
2022-09-25T18:48:22.184Z,12.40
2022-09-25T18:50:50.691Z,11.18
2022-09-25T18:53:19.038Z,9.48
2022-09-25T18:55:46.781Z,10.30
2022-09-25T18:58:14.709Z,10.80
2022-09-25T19:00:43.817Z,11.50
2022-09-25T19:03:11.525Z,10.63
2022-09-25T19:05:39.340Z,11.10
2022-09-25T19:08:07.494Z,9.33
2022-09-25T19:10:35.290Z,10.30
2022-09-25T19:13:03.034Z,8.60
2022-09-25T19:15:31.091Z,9.20
2022-09-25T19:18:00.301Z,10.00
2022-09-25T19:20:28.301Z,9.70
2022-09-25T19:22:56.026Z,10.25
2022-09-25T19:25:23.781Z,10.70
2022-09-25T19:27:51.461Z,9.23
2022-09-25T19:30:19.196Z,9.98
2022-09-25T19:32:46.872Z,9.10
2022-09-25T19:35:16.364Z,9.23
2022-09-25T19:37:44.352Z,10.10
2022-09-25T19:40:29.946Z,10.77
2022-09-25T19:42:58.435Z,9.55
2022-09-25T19:45:26.263Z,8.68
2022-09-25T19:47:53.927Z,9.87
2022-09-25T19:50:23.106Z,9.50
2022-09-25T19:52:51.476Z,9.90
2022-09-25T19:55:19.736Z,9.20
2022-09-25T19:57:47.810Z,8.52
2022-09-25T20:00:17.211Z,9.20
2022-09-25T20:02:46.510Z,9.20
2022-09-25T20:05:14.532Z,9.70
2022-09-25T20:07:43.582Z,9.48
2022-09-25T20:10:11.379Z,9.98
2022-09-25T20:12:39.185Z,7.20
2022-09-25T20:15:08.095Z,9.27
2022-09-25T20:17:35.832Z,8.03
2022-09-25T20:20:03.965Z,8.65
2022-09-25T20:22:32.433Z,8.80
2022-09-25T20:25:01.501Z,9.15
2022-09-25T20:27:29.190Z,9.00
2022-09-25T20:29:59.535Z,8.37
2022-09-25T20:32:27.223Z,8.70
2022-09-25T20:34:54.971Z,8.48
2022-09-25T20:37:23.530Z,9.00
2022-09-25T20:39:51.531Z,8.90
2022-09-25T20:42:21.324Z,7.63
2022-09-25T20:44:49.407Z,7.67
2022-09-25T20:47:18.348Z,8.18
2022-09-25T20:49:46.216Z,7.67
2022-09-25T20:52:14.498Z,8.23
2022-09-25T20:54:42.805Z,8.20
2022-09-25T20:57:12.918Z,6.77
2022-09-25T20:59:42.063Z,7.45
2022-09-25T21:02:10.191Z,7.55
2022-09-25T21:04:40.232Z,7.10
2022-09-25T21:07:10.903Z,7.35
2022-09-25T21:09:40.812Z,7.17
2022-09-25T21:12:08.474Z,7.72
2022-09-25T21:14:37.786Z,6.65
2022-09-25T21:17:07.005Z,7.70
2022-09-25T21:19:34.931Z,6.95
2022-09-25T21:22:02.626Z,7.32
2022-09-25T21:24:32.465Z,6.55
2022-09-25T21:27:00.229Z,6.43
2022-09-25T21:29:28.133Z,6.00
2022-09-25T21:31:56.453Z,6.95
2022-09-25T21:34:26.411Z,5.93
2022-09-25T21:36:54.137Z,5.40
2022-09-25T21:39:21.807Z,6.00
2022-09-25T21:41:50.317Z,6.20
2022-09-25T21:44:21.269Z,6.20
2022-09-25T21:46:48.951Z,4.78
2022-09-25T21:49:19.079Z,4.50
2022-09-25T21:51:49.451Z,5.95
2022-09-25T21:54:17.966Z,5.60
2022-09-25T21:56:48.555Z,5.80
2022-09-25T21:59:16.562Z,6.28
2022-09-25T22:01:44.446Z,6.60
2022-09-25T22:04:13.679Z,5.95
2022-09-25T22:06:43.649Z,6.93
2022-09-25T22:09:16.658Z,4.53
2022-09-25T22:11:44.918Z,5.80
2022-09-25T22:14:16.706Z,5.95
2022-09-25T22:16:46.430Z,5.10
2022-09-25T22:19:16.413Z,5.83
2022-09-25T22:21:45.969Z,5.27
2022-09-25T22:24:15.232Z,5.70
2022-09-25T22:26:44.998Z,6.45
2022-09-25T22:29:13.594Z,6.82
2022-09-25T22:31:43.149Z,5.67
2022-09-25T22:34:17.708Z,5.50
2022-09-25T22:36:45.624Z,6.07
2022-09-25T22:39:16.863Z,7.53
2022-09-25T22:41:45.186Z,5.60
2022-09-25T22:44:12.900Z,6.10
2022-09-25T22:46:40.620Z,7.27
2022-09-25T22:49:08.508Z,5.40
2022-09-25T22:51:36.300Z,5.85
2022-09-25T22:54:04.574Z,5.93
2022-09-25T22:56:35.427Z,6.18
2022-09-25T22:59:06.958Z,6.45
2022-09-25T23:01:39.563Z,5.43
2022-09-25T23:04:10.989Z,5.60
2022-09-25T23:06:41.451Z,6.65
2022-09-25T23:09:16.047Z,5.82
2022-09-25T23:11:45.544Z,5.43
2022-09-25T23:14:16.874Z,5.70
2022-09-25T23:16:46.370Z,5.70
2022-09-25T23:19:15.383Z,5.55
2022-09-25T23:21:44.357Z,6.10
2022-09-25T23:24:14.269Z,7.28
2022-09-25T23:26:42.503Z,6.65
2022-09-25T23:29:13.023Z,5.33
2022-09-25T23:31:41.277Z,4.97
2022-09-25T23:34:09.404Z,6.07
2022-09-25T23:36:39.934Z,6.55
2022-09-25T23:39:09.352Z,6.82
2022-09-25T23:41:39.182Z,5.53
2022-09-25T23:44:10.151Z,5.15
2022-09-25T23:46:40.910Z,4.75
2022-09-25T23:49:10.136Z,5.70
2022-09-25T23:51:38.522Z,7.85
2022-09-25T23:54:06.901Z,5.10
2022-09-25T23:56:35.665Z,5.95
2022-09-25T23:59:05.436Z,5.55
